Time;durP1;ratioP1;P1;durP2;ratioP2;P2;SDS_P1;SDS_P2;PMS_P1;PMS_P2;Temp;Humidity;BMP_temperature;BMP_pressure;BME280_temperature;BME280_humidity;BME280_pressure;Samples;Min_cycle;Max_cycle;Signal;HPM_P1;HPM_P2
2022/01/09 00:00:32;;;;;;;37.10;25.52;;;3.50;83.80;;;2.18;79.48;95392.00;3977840;34;20012;-90
2022/01/09 00:02:58;;;;;;;;;;;3.50;83.70;;;2.20;79.58;95392.59;4000485;34;20019;-89
2022/01/09 00:05:25;;;;;;;36.47;23.90;;;3.50;83.70;;;2.18;79.49;95383.91;4018558;34;20278;-90
2022/01/09 00:07:53;;;;;;;36.55;25.02;;;3.50;83.80;;;2.19;79.30;95388.25;4018891;34;19989;-90
2022/01/09 00:10:19;;;;;;;38.88;24.80;;;3.50;83.70;;;2.17;79.78;95384.97;3979666;34;20009;-90
2022/01/09 00:12:46;;;;;;;37.33;25.60;;;3.50;83.80;;;2.17;79.26;95393.91;4022450;34;20640;-90
2022/01/09 00:15:13;;;;;;;37.97;25.42;;;3.50;83.70;;;2.18;79.80;95394.72;4000026;34;20282;-90
2022/01/09 00:17:39;;;;;;;36.60;24.63;;;3.50;83.80;;;2.18;79.80;95389.31;4021158;34;20009;-90
2022/01/09 00:20:07;;;;;;;36.58;25.00;;;3.50;83.80;;;2.19;79.23;95390.97;4020991;34;20318;-90
2022/01/09 00:22:45;;;;;;;38.30;25.38;;;3.50;83.70;;;2.19;79.53;95391.78;4000822;34;20339;-89
2022/01/09 00:25:16;;;;;;;35.20;24.13;;;3.50;83.80;;;2.19;79.60;95388.25;4002990;34;20096;-89
2022/01/09 00:27:42;;;;;;;35.88;25.38;;;3.50;83.80;;;2.19;79.43;95391.78;4000387;34;20012;-90
2022/01/09 00:30:12;;;;;;;41.22;25.88;;;3.50;83.80;;;2.17;79.57;95387.66;4042664;34;20053;-90
2022/01/09 00:32:39;;;;;;;36.70;24.65;;;3.50;83.80;;;2.19;79.31;95390.97;4019615;34;20020;-91
2022/01/09 00:35:06;;;;;;;40.17;25.98;;;3.50;83.70;;;2.18;79.76;95400.13;3998190;34;20015;-90
2022/01/09 00:37:32;;;;;;;36.92;24.48;;;3.50;83.80;;;2.15;79.58;95396.81;4021483;34;20001;-90
2022/01/09 00:39:58;;;;;;;39.35;26.45;;;3.50;83.90;;;2.17;79.66;95393.06;4020711;34;20335;-91
2022/01/09 00:42:25;;;;;;;38.10;25.65;;;3.50;83.60;;;2.17;79.46;95376.88;4021087;34;20417;-90
2022/01/09 00:44:51;;;;;;;36.78;25.50;;;3.50;83.80;;;2.17;79.60;95390.38;3998535;34;20347;-90
2022/01/09 00:47:17;;;;;;;39.22;25.38;;;3.50;83.90;;;2.19;79.46;95385.56;3998943;34;20009;-90
2022/01/09 00:49:44;;;;;;;42.65;26.30;;;3.50;83.80;;;2.17;79.44;95393.06;4021221;34;20319;-90
2022/01/09 00:52:10;;;;;;;43.38;27.83;;;3.50;83.60;;;2.19;79.55;95394.50;3999265;34;20084;-90
2022/01/09 00:54:36;;;;;;;40.08;26.00;;;3.50;83.80;;;2.18;79.20;95394.72;4000038;34;20059;-90
2022/01/09 00:57:03;;;;;;;39.38;25.33;;;3.50;83.70;;;2.15;79.34;95383.31;4044387;34;20916;-90
2022/01/09 00:59:30;;;;;;;39.72;25.77;;;3.50;83.70;;;2.14;79.66;95383.56;4001866;34;20289;-89
2022/01/09 01:01:56;;;;;;;38.53;25.40;;;3.50;83.80;;;2.16;79.69;95386.88;4018622;34;20120;-90
2022/01/09 01:04:22;;;;;;;38.92;26.02;;;3.50;83.80;;;2.18;79.57;95386.63;4015386;29;20016;-84
2022/01/09 01:06:49;;;;;;;40.55;26.00;;;3.50;83.80;;;2.19;79.43;95377.47;4022085;34;20316;-84
2022/01/09 01:09:23;;;;;;;38.20;25.15;;;3.50;83.90;;;2.17;79.52;95380.41;4043191;34;20612;-85
2022/01/09 01:11:50;;;;;;;40.60;25.25;;;3.50;83.80;;;2.19;79.36;95385.56;4022081;34;20320;-84
2022/01/09 01:14:22;;;;;;;38.70;25.08;;;3.50;83.70;;;2.17;79.56;95376.88;3995367;34;20596;-85
2022/01/09 01:16:49;;;;;;;39.17;24.40;;;3.50;83.60;;;2.17;79.61;95371.47;4000154;34;20289;-85
2022/01/09 01:19:16;;;;;;;39.42;26.48;;;3.50;83.70;;;2.17;79.70;95371.47;4027705;34;20016;-84
2022/01/09 01:21:42;;;;;;;40.85;26.20;;;3.50;83.80;;;2.16;79.28;95370.66;4030209;34;20384;-83
2022/01/09 01:24:08;;;;;;;39.05;25.40;;;3.50;83.80;;;2.17;79.64;95372.31;4040730;34;20005;-86
2022/01/09 01:26:34;;;;;;;39.08;26.60;;;3.50;83.90;;;2.17;79.65;95376.88;4047138;34;20393;-83
2022/01/09 01:29:01;;;;;;;38.85;25.27;;;3.50;83.80;;;2.18;79.44;95381.22;4011528;34;20524;-84
2022/01/09 01:31:27;;;;;;;35.60;24.42;;;3.50;83.80;;;2.17;79.24;95382.28;4048588;34;20370;-84
2022/01/09 01:33:54;;;;;;;37.47;24.90;;;3.50;83.70;;;2.15;79.69;95383.31;4038136;34;20328;-84
2022/01/09 01:36:20;;;;;;;35.05;25.27;;;3.50;83.70;;;2.15;79.83;95375.22;4013829;34;20031;-84
2022/01/09 01:38:47;;;;;;;36.58;24.70;;;3.50;83.90;;;2.17;79.33;95371.47;4032209;34;20629;-84
2022/01/09 01:41:13;;;;;;;36.20;24.50;;;3.50;83.80;;;2.16;79.33;95359.88;4014819;34;20291;-84
2022/01/09 01:43:39;;;;;;;38.47;24.92;;;3.50;83.80;;;2.15;79.48;95342.81;4020990;34;20013;-84
2022/01/09 01:46:05;;;;;;;35.35;23.75;;;3.50;83.80;;;2.16;79.54;95351.75;4013331;34;20356;-84
2022/01/09 01:48:32;;;;;;;38.47;25.10;;;3.50;83.80;;;2.15;79.84;95350.94;4014708;34;20656;-84
2022/01/09 01:50:58;;;;;;;37.10;24.33;;;3.50;83.90;;;2.15;79.74;95350.13;4013863;34;19997;-84
2022/01/09 01:53:25;;;;;;;36.55;24.30;;;3.50;83.80;;;2.13;79.30;95344.94;4013290;34;20328;-84
2022/01/09 01:55:55;;;;;;;36.13;24.75;;;3.50;83.70;;;2.13;79.64;95336.84;4012661;34;20599;-84
2022/01/09 01:58:23;;;;;;;36.10;24.40;;;3.50;83.80;;;2.15;79.59;95332.03;4013460;34;20296;-84
2022/01/09 02:00:50;;;;;;;36.83;24.10;;;3.50;83.80;;;2.14;79.51;95324.97;4011241;34;20292;-83
2022/01/09 02:03:16;;;;;;;36.53;24.13;;;3.50;83.80;;;2.13;79.53;95328.75;4011303;34;20332;-83
2022/01/09 02:05:44;;;;;;;34.67;23.20;;;3.50;83.80;;;2.14;79.12;95330.38;4010216;34;20388;-84
2022/01/09 02:08:11;;;;;;;40.13;24.55;;;3.50;83.90;;;2.13;79.52;95333.34;4010645;34;20072;-85
2022/01/09 02:10:42;;;;;;;36.88;23.08;;;3.50;83.80;;;2.13;79.53;95323.34;4010386;34;20005;-84
2022/01/09 02:13:09;;;;;;;32.92;22.83;;;3.50;83.90;;;2.14;79.84;95314.19;4010331;34;20012;-84
2022/01/09 02:15:39;;;;;;;38.55;25.15;;;3.40;83.80;;;2.13;79.33;95311.72;4010130;34;20334;-86
2022/01/09 02:18:16;;;;;;;33.38;22.17;;;3.50;83.80;;;2.13;79.56;95317.13;4011629;34;20017;-85
2022/01/09 02:20:43;;;;;;;37.00;22.33;;;3.50;83.80;;;2.13;79.50;95317.94;4006980;34;20312;-85
2022/01/09 02:23:10;;;;;;;34.92;22.95;;;3.40;83.60;;;2.14;79.64;95324.97;4029729;34;20235;-85
2022/01/09 02:25:37;;;;;;;34.28;22.48;;;3.50;83.80;;;2.12;79.53;95327.13;4006653;34;20374;-85
2022/01/09 02:28:04;;;;;;;32.83;21.42;;;3.40;83.80;;;2.14;79.77;95324.19;3987510;34;20705;-85
2022/01/09 02:30:32;;;;;;;35.28;22.77;;;3.40;83.70;;;2.14;80.03;95319.59;4012084;34;20358;-84
2022/01/09 02:33:05;;;;;;;32.20;21.17;;;3.50;83.90;;;2.12;79.64;95305.53;4011905;34;20378;-85
2022/01/09 02:35:32;;;;;;;34.03;22.00;;;3.50;83.80;;;2.12;79.67;95302.81;4010808;34;20679;-85
2022/01/09 02:37:59;;;;;;;33.90;21.85;;;3.40;83.80;;;2.13;79.84;95299.03;4013570;34;20429;-85
2022/01/09 02:40:25;;;;;;;32.78;21.45;;;3.40;83.80;;;2.12;79.41;95305.53;4000451;34;20589;-85
2022/01/09 02:42:53;;;;;;;31.98;20.83;;;3.40;83.80;;;2.12;79.32;95308.22;3972840;34;20326;-85
2022/01/09 02:45:22;;;;;;;34.10;21.30;;;3.40;83.90;;;2.13;79.63;95314.44;3993929;34;20662;-85
2022/01/09 02:47:53;;;;;;;31.80;21.75;;;3.40;83.90;;;2.13;79.65;95309.84;3953144;34;20272;-84
2022/01/09 02:52:56;;;;;;;31.55;21.15;;;3.40;83.80;;;2.12;79.52;95293.88;3994603;34;20088;-85
2022/01/09 02:55:24;;;;;;;32.15;19.83;;;3.40;83.80;;;2.12;79.86;95294.72;3994959;34;20326;-84
2022/01/09 02:57:58;;;;;;;36.60;21.98;;;3.40;83.90;;;2.13;79.34;95292.84;3972272;34;20001;-84
2022/01/09 03:00:32;;;;;;;31.85;20.42;;;3.40;83.80;;;2.13;79.59;95296.34;3993897;34;19993;-84
2022/01/09 03:02:59;;;;;;;32.67;22.30;;;3.40;83.90;;;2.12;79.64;95300.13;4016372;34;20320;-85
2022/01/09 03:05:26;;;;;;;28.75;20.00;;;3.40;83.70;;;2.13;79.36;95280.13;3971901;34;20086;-85
2022/01/09 03:07:53;;;;;;;33.58;20.00;;;3.40;83.70;;;2.12;79.60;95283.94;3994142;34;20369;-84
2022/01/09 03:10:21;;;;;;;28.20;18.85;;;3.40;83.80;;;2.12;79.44;95293.88;3972526;34;20001;-84
2022/01/09 03:12:48;;;;;;;31.85;20.50;;;3.40;83.70;;;2.12;79.64;95283.09;3971227;34;20013;-84
2022/01/09 03:15:15;;;;;;;31.50;19.70;;;3.40;83.80;;;2.12;79.78;95289.31;3992432;34;20379;-84
2022/01/09 03:17:42;;;;;;;28.75;19.02;;;3.40;83.80;;;2.11;79.77;95276.88;3992273;34;20304;-85
2022/01/09 03:20:15;;;;;;;29.98;19.20;;;3.40;83.80;;;2.12;80.03;95272.28;3992274;34;20343;-84
2022/01/09 03:22:41;;;;;;;29.58;18.30;;;3.40;83.80;;;2.10;79.52;95264.44;4015098;34;20292;-84
2022/01/09 03:25:08;;;;;;;27.45;18.40;;;3.40;83.80;;;2.12;79.47;95266.88;3993801;34;20001;-83
2022/01/09 03:27:40;;;;;;;26.70;18.05;;;3.40;83.80;;;2.11;79.71;95271.47;3972907;34;20303;-84
2022/01/09 03:30:09;;;;;;;27.33;18.50;;;3.40;83.80;;;2.12;79.54;95269.59;3993532;34;20077;-85
2022/01/09 03:32:37;;;;;;;29.85;19.10;;;3.40;83.80;;;2.11;79.57;95265.25;3994852;34;20070;-83
2022/01/09 03:35:06;;;;;;;27.70;17.90;;;3.40;83.80;;;2.12;79.84;95264.19;3992364;34;20013;-85
2022/01/09 03:37:33;;;;;;;31.88;20.33;;;3.40;83.80;;;2.11;79.58;95257.97;3991924;34;20369;-84
2022/01/09 03:39:59;;;;;;;30.67;19.80;;;3.40;83.90;;;2.11;79.51;95259.84;3991897;34;19997;-85
2022/01/09 03:42:25;;;;;;;30.00;20.05;;;3.40;83.90;;;2.11;79.68;95259.84;3970160;34;20306;-85
2022/01/09 03:44:52;;;;;;;31.30;20.27;;;3.40;83.90;;;2.10;79.77;95253.66;3969522;34;20285;-85
2022/01/09 03:47:18;;;;;;;28.65;18.83;;;3.40;84.00;;;2.10;79.48;95261.75;3970330;34;20013;-85
2022/01/09 03:49:44;;;;;;;33.17;19.88;;;3.40;83.80;;;2.11;79.67;95259.84;3991344;34;20016;-85
2022/01/09 03:52:11;;;;;;;30.65;20.15;;;3.40;83.80;;;2.11;79.88;95249.03;3970040;34;20314;-85
2022/01/09 03:54:38;;;;;;;36.42;21.67;;;3.40;83.90;;;2.12;79.62;95246.13;3990563;34;20010;-85
2022/01/09 03:57:06;;;;;;;31.67;20.27;;;3.40;83.90;;;2.11;79.96;95243.66;3992146;34;20080;-85
2022/01/09 03:59:32;;;;;;;33.20;20.42;;;3.40;83.80;;;2.09;79.59;95246.59;3992631;34;20321;-84
2022/01/09 04:01:58;;;;;;;34.55;21.17;;;3.40;83.90;;;2.10;79.33;95253.66;3994428;34;20013;-85
2022/01/09 04:04:25;;;;;;;35.75;21.73;;;3.40;83.80;;;2.09;79.62;95246.59;3991027;34;20302;-85
2022/01/09 04:06:51;;;;;;;31.60;20.17;;;3.40;83.90;;;2.10;79.69;95245.53;4024264;34;20015;-84
2022/01/09 04:09:28;;;;;;;31.58;19.98;;;3.40;83.80;;;2.10;79.97;95248.25;3996003;34;20041;-84
2022/01/09 04:12:03;;;;;;;33.72;20.08;;;3.40;83.90;;;2.09;79.70;95243.06;3981996;34;20311;-84
2022/01/09 04:14:30;;;;;;;35.05;21.85;;;3.40;83.90;;;2.10;79.67;95236.59;4000347;34;20005;-85
2022/01/09 04:16:58;;;;;;;35.63;20.60;;;3.40;84.00;;;2.10;79.74;95237.44;3976692;34;20607;-84
2022/01/09 04:19:25;;;;;;;33.10;20.25;;;3.40;84.00;;;2.10;79.82;95237.44;4019753;34;20314;-84
2022/01/09 04:21:51;;;;;;;34.67;21.40;;;3.40;83.80;;;2.09;79.60;95240.38;4062575;34;20325;-85
2022/01/09 04:24:17;;;;;;;33.90;19.83;;;3.40;83.90;;;2.09;79.85;95238.50;3974919;34;20005;-85
2022/01/09 04:26:43;;;;;;;32.17;20.08;;;3.40;83.90;;;2.08;79.42;95244.97;4014623;34;20009;-85
2022/01/09 04:29:10;;;;;;;35.53;19.95;;;3.40;83.90;;;2.09;79.50;95234.97;4013722;34;20302;-85
2022/01/09 04:31:36;;;;;;;31.67;19.90;;;3.40;83.90;;;2.09;nan;95224.16;3992646;34;19993;-84
2022/01/09 04:34:02;;;;;;;33.83;21.45;;;3.40;83.80;;;2.10;79.65;95232.03;4016630;34;20080;-84
2022/01/09 04:36:29;;;;;;;34.13;20.73;;;3.40;83.90;;;2.09;79.67;95234.97;4017115;34;20307;-84
2022/01/09 04:38:55;;;;;;;35.67;19.85;;;3.40;84.00;;;2.09;79.71;95246.59;4015449;34;20354;-84
2022/01/09 04:41:22;;;;;;;33.50;20.58;;;3.40;84.00;;;2.10;79.40;95242.00;4013321;34;20292;-84
2022/01/09 04:43:50;;;;;;;32.03;19.23;;;3.40;83.90;;;2.10;79.80;95248.25;4033997;34;20005;-85
2022/01/09 04:46:23;;;;;;;32.30;19.42;;;3.40;83.90;;;2.08;79.60;95244.97;4012545;34;20008;-84
2022/01/09 04:48:53;;;;;;;33.83;20.10;;;3.40;83.90;;;2.10;79.79;95242.00;3995986;34;20319;-85
2022/01/09 04:51:19;;;;;;;32.65;19.95;;;3.40;84.00;;;2.10;79.61;95242.84;3972546;34;20239;-85
2022/01/09 04:53:45;;;;;;;32.40;19.00;;;3.40;84.00;;;2.08;79.36;95236.84;3992862;34;20285;-85
2022/01/09 04:56:12;;;;;;;39.50;20.83;;;3.40;84.00;;;2.09;79.33;95241.19;4013352;34;20319;-85
2022/01/09 04:58:38;;;;;;;31.70;19.38;;;3.40;83.90;;;2.09;79.74;95238.50;4013644;34;20050;-85
2022/01/09 05:01:04;;;;;;;31.20;19.70;;;3.40;83.90;;;2.08;79.38;95242.25;3991618;34;20326;-85
2022/01/09 05:03:31;;;;;;;28.58;18.67;;;3.40;83.80;;;2.08;79.78;95244.13;4011397;34;20285;-85
2022/01/09 05:05:57;;;;;;;30.20;18.80;;;3.40;83.90;;;2.09;79.47;95248.47;3990775;34;20388;-85
2022/01/09 05:08:23;;;;;;;31.05;17.90;;;3.40;83.90;;;2.08;79.69;95247.66;3984836;34;20003;-85
2022/01/09 05:10:50;;;;;;;30.45;19.05;;;3.40;83.80;;;2.08;79.55;95247.66;3984040;34;20289;-84
2022/01/09 05:13:16;;;;;;;28.95;18.38;;;3.40;83.90;;;2.08;80.01;95244.97;3941239;34;20031;-84
2022/01/09 05:15:43;;;;;;;33.22;19.25;;;3.40;83.90;;;2.07;79.82;95237.91;3979382;34;20025;-84
2022/01/09 05:18:14;;;;;;;27.70;17.63;;;3.40;83.80;;;2.08;79.75;95234.16;3937478;34;20009;-85
2022/01/09 05:20:42;;;;;;;28.70;17.50;;;3.40;83.90;;;2.08;79.86;95231.47;3959447;34;20236;-85
2022/01/09 05:23:08;;;;;;;30.77;18.60;;;3.40;83.90;;;2.09;79.62;95234.97;3979764;34;20013;-84
2022/01/09 05:25:35;;;;;;;31.70;18.98;;;3.40;83.90;;;2.06;79.37;95225.47;3961200;34;20327;-84
2022/01/09 05:28:01;;;;;;;25.45;17.00;;;3.40;84.00;;;2.07;79.66;95237.91;4002550;34;20178;-84
2022/01/09 05:30:27;;;;;;;26.23;17.15;;;3.40;83.90;;;2.08;79.51;95228.75;3960146;34;20038;-84
2022/01/09 05:32:54;;;;;;;26.33;17.23;;;3.40;83.90;;;2.07;79.43;95226.28;3959452;34;20323;-85
2022/01/09 05:35:20;;;;;;;28.95;18.95;;;3.40;83.80;;;2.07;79.67;95227.13;3958631;34;20294;-85
2022/01/09 05:37:46;;;;;;;32.55;18.80;;;3.40;83.90;;;2.07;79.59;95232.50;4002296;34;20091;-84
2022/01/09 05:40:13;;;;;;;27.42;17.13;;;3.40;83.80;;;2.08;79.87;95231.47;4001874;34;20325;-85
2022/01/09 05:42:39;;;;;;;31.33;18.80;;;3.40;83.90;;;2.08;79.33;95217.13;4002264;34;19997;-84
2022/01/09 05:45:08;;;;;;;28.65;17.63;;;3.40;84.00;;;2.08;80.02;95217.13;3958915;34;20654;-84
2022/01/09 05:47:34;;;;;;;31.55;19.40;;;3.40;84.00;;;2.06;79.82;95214.69;3959784;34;20328;-84
2022/01/09 05:50:01;;;;;;;28.73;17.67;;;3.40;84.00;;;2.07;79.90;95216.31;4002398;34;20280;-84
2022/01/09 05:52:27;;;;;;;26.23;17.33;;;3.40;84.00;;;2.06;79.81;95203.88;3959911;34;20137;-84
2022/01/09 05:54:53;;;;;;;26.60;16.95;;;3.40;84.00;;;2.07;79.58;95205.53;4024013;34;19997;-85
2022/01/09 05:57:19;;;;;;;27.60;16.92;;;3.40;84.00;;;2.06;79.78;95209.28;3983643;34;20290;-85
2022/01/09 05:59:46;;;;;;;27.42;17.08;;;3.40;84.00;;;2.05;79.73;95204.94;3988585;34;20295;-84
2022/01/09 06:02:12;;;;;;;28.30;18.15;;;3.40;84.00;;;2.06;79.75;95208.47;3988344;34;20017;-85
2022/01/09 06:04:38;;;;;;;27.02;17.20;;;3.40;83.90;;;2.07;79.58;95207.38;3983459;34;19997;-84
2022/01/09 06:07:05;;;;;;;28.85;17.00;;;3.40;84.00;;;2.05;79.84;95201.44;3984105;34;20693;-85
2022/01/09 06:09:31;;;;;;;28.70;17.98;;;3.40;84.00;;;2.06;79.75;95209.28;3984236;34;20275;-84
2022/01/09 06:11:57;;;;;;;24.88;17.00;;;3.40;84.00;;;2.06;79.65;95209.28;3991744;34;20012;-84
2022/01/09 06:14:24;;;;;;;27.05;17.17;;;3.40;84.00;;;2.06;nan;95205.78;3989025;34;20583;-85
2022/01/09 06:16:50;;;;;;;28.55;17.40;;;3.40;84.00;;;2.06;79.90;95214.69;3986535;34;20060;-84
2022/01/09 06:19:16;;;;;;;30.60;17.08;;;3.40;84.00;;;2.07;79.61;95210.91;4031893;34;20011;-85
2022/01/09 06:21:43;;;;;;;28.95;16.98;;;3.40;84.00;;;2.06;79.70;95206.59;3989161;34;20374;-84
2022/01/09 06:24:09;;;;;;;27.23;17.83;;;3.40;84.00;;;2.05;79.50;95204.94;3988364;34;20759;-85
2022/01/09 06:26:35;;;;;;;26.17;17.88;;;3.40;84.00;;;2.05;79.71;95201.44;3988740;34;20019;-85
2022/01/09 06:29:02;;;;;;;24.60;16.42;;;3.40;84.00;;;2.06;79.81;95203.88;4010619;34;20316;-84
2022/01/09 06:31:28;;;;;;;27.08;17.23;;;3.40;84.00;;;2.05;79.53;95204.13;3989570;34;20009;-84
2022/01/09 06:33:54;;;;;;;28.95;18.20;;;3.40;84.00;;;2.06;79.82;95203.88;3989388;34;20312;-85
2022/01/09 06:36:21;;;;;;;27.75;17.10;;;3.40;84.00;;;2.05;79.53;95204.94;3988273;34;20313;-84
2022/01/09 06:38:47;;;;;;;26.35;17.60;;;3.40;84.00;;;2.05;79.59;95196.84;3946463;34;20263;-84
2022/01/09 06:41:13;;;;;;;26.85;16.85;;;3.40;84.00;;;2.06;79.67;95192.28;4009334;34;20009;-84
2022/01/09 06:43:40;;;;;;;26.05;15.63;;;3.40;84.00;;;2.06;79.94;95201.19;3988826;34;20650;-84
2022/01/09 06:46:07;;;;;;;25.83;17.27;;;3.40;84.00;;;2.05;79.64;95218.44;3987521;34;20084;-84
2022/01/09 06:48:36;;;;;;;25.48;16.90;;;3.40;84.00;;;2.06;79.49;95213.88;3988734;34;20328;-85
2022/01/09 06:51:02;;;;;;;27.63;17.52;;;3.40;83.90;;;2.05;79.92;95210.34;3946887;34;19997;-84
2022/01/09 06:53:28;;;;;;;26.73;17.27;;;3.40;84.00;;;2.05;79.64;95218.44;3989024;34;20398;-84
2022/01/09 06:55:55;;;;;;;25.50;17.17;;;3.40;83.90;;;2.05;79.42;95217.63;4008283;34;20394;-84
2022/01/09 06:58:21;;;;;;;26.00;17.83;;;3.40;83.90;;;2.07;79.74;95219.03;4010354;34;20019;-84
2022/01/09 07:00:48;;;;;;;27.52;17.52;;;3.40;84.00;;;2.04;79.63;95233.00;4011217;34;20001;-84
2022/01/09 07:03:15;;;;;;;26.55;16.48;;;3.40;84.00;;;2.06;79.53;95220.06;4034481;34;20537;-84
2022/01/09 07:05:41;;;;;;;25.05;17.25;;;3.40;83.90;;;2.06;79.40;95221.97;4026818;34;20072;-84
2022/01/09 07:08:08;;;;;;;24.92;16.70;;;3.40;83.90;;;2.05;79.73;95217.63;4012939;34;20395;-84
2022/01/09 07:10:34;;;;;;;26.38;17.33;;;3.40;83.90;;;2.06;79.81;95222.78;4012282;34;20438;-84
2022/01/09 07:13:00;;;;;;;25.15;16.90;;;3.40;83.80;;;2.05;79.90;95213.03;4012369;34;20041;-84
2022/01/09 07:15:27;;;;;;;28.85;17.90;;;3.40;84.20;;;2.05;79.47;95221.13;4033784;34;20282;-84
2022/01/09 07:17:53;;;;;;;25.27;17.67;;;3.40;83.80;;;2.07;79.29;95220.88;3991126;34;20283;-84
2022/01/09 07:20:19;;;;;;;30.55;18.73;;;3.40;83.80;;;2.04;79.27;95216.78;4034267;34;20383;-83
2022/01/09 07:22:47;;;;;;;30.00;18.75;;;3.40;83.90;;;2.06;79.54;95213.88;4033565;34;20319;-84
2022/01/09 07:25:13;;;;;;;30.23;19.25;;;3.40;84.00;;;2.05;79.35;95207.63;4010041;34;20305;-84
2022/01/09 07:27:40;;;;;;;28.17;18.77;;;3.40;83.90;;;2.06;79.46;95203.06;3989292;34;20278;-84
2022/01/09 07:30:07;;;;;;;27.70;18.98;;;3.40;84.00;;;2.06;79.51;95203.88;4010475;34;20005;-84
2022/01/09 07:32:36;;;;;;;29.45;19.52;;;3.40;83.90;;;2.05;79.50;95207.63;3989658;34;20286;-84
2022/01/09 07:35:04;;;;;;;28.15;18.35;;;3.40;83.90;;;2.07;79.42;95210.09;4031203;34;19998;-84
2022/01/09 07:37:31;;;;;;;32.08;19.85;;;3.40;84.00;;;2.06;79.75;95203.88;4010660;34;20314;-84
2022/01/09 07:40:00;;;;;;;25.60;17.98;;;3.40;83.90;;;2.07;79.67;95210.09;4010111;34;20561;-84
2022/01/09 07:42:27;;;;;;;27.60;17.45;;;3.40;83.90;;;2.07;79.99;95210.09;4012661;34;20335;-84
2022/01/09 07:44:53;;;;;;;29.77;18.90;;;3.40;83.80;;;2.06;79.23;95208.47;4034265;34;20065;-84
2022/01/09 07:47:19;;;;;;;26.60;18.52;;;3.40;83.90;;;2.07;79.82;95208.22;4012553;34;20096;-83
2022/01/09 07:49:46;;;;;;;26.73;17.23;;;3.40;83.80;;;2.06;79.51;95211.97;4013035;34;20390;-84
2022/01/09 07:52:12;;;;;;;27.08;17.70;;;3.40;83.80;;;2.07;79.35;95216.31;4035057;34;20263;-84
2022/01/09 07:54:38;;;;;;;30.63;17.73;;;3.40;83.80;;;2.06;79.52;95206.59;4014064;34;20005;-84
2022/01/09 07:57:05;;;;;;;27.48;18.20;;;3.40;83.80;;;2.07;79.40;95213.63;4014612;34;20220;-84
2022/01/09 07:59:31;;;;;;;28.35;18.50;;;3.40;83.80;;;2.08;79.75;95214.44;4015769;34;20092;-84
2022/01/09 08:01:57;;;;;;;25.88;17.52;;;3.40;83.70;;;2.07;79.68;95210.91;4037995;34;20317;-84
2022/01/09 08:04:24;;;;;;;30.25;18.95;;;3.40;83.70;;;2.06;78.90;95211.16;4018230;34;20294;-84
2022/01/09 08:06:50;;;;;;;28.85;18.33;;;3.40;83.80;;;2.07;79.31;95205.53;4013965;34;20005;-84
2022/01/09 08:09:16;;;;;;;29.30;17.30;;;3.40;83.70;;;2.07;79.25;95204.69;4037452;34;20119;-84
2022/01/09 08:11:43;;;;;;;31.02;18.90;;;3.40;83.70;;;2.06;79.07;95203.06;4034028;34;20577;-84
2022/01/09 08:14:09;;;;;;;27.35;17.65;;;3.30;83.60;;;2.06;79.57;95206.59;4006002;34;20277;-85
2022/01/09 08:16:35;;;;;;;26.88;17.25;;;3.40;83.70;;;2.06;79.66;95209.28;4006204;34;20011;-84
2022/01/09 08:19:02;;;;;;;26.75;17.55;;;3.40;83.70;;;2.07;79.60;95210.91;4027714;34;20269;-85
2022/01/09 08:21:29;;;;;;;28.52;18.50;;;3.40;83.60;;;2.08;79.40;95212.56;4006934;34;20064;-84
2022/01/09 08:23:56;;;;;;;30.98;19.55;;;3.40;83.70;;;2.06;79.70;95206.59;4007414;34;20288;-84
2022/01/09 08:26:22;;;;;;;28.05;17.90;;;3.40;83.70;;;2.06;79.54;95214.69;4025636;34;20037;-84
2022/01/09 08:28:48;;;;;;;24.55;17.00;;;3.40;83.70;;;2.08;79.42;95222.53;4025009;34;19997;-84
2022/01/09 08:31:17;;;;;;;25.52;17.35;;;3.40;83.70;;;2.08;79.46;95233.31;4009967;34;20290;-84
2022/01/09 08:33:44;;;;;;;28.08;18.45;;;3.40;83.60;;;2.06;79.12;95227.38;4016106;34;20362;-84
2022/01/09 08:36:10;;;;;;;27.92;17.40;;;3.40;83.60;;;2.07;79.43;95216.31;4003588;34;20342;-84
2022/01/09 08:38:36;;;;;;;26.95;17.73;;;3.40;83.60;;;2.07;79.53;95221.72;4002667;34;20486;-84
2022/01/09 08:41:03;;;;;;;25.05;16.55;;;3.40;83.60;;;2.08;79.50;95222.53;4002630;34;20405;-84
2022/01/09 08:43:31;;;;;;;28.35;17.20;;;3.40;83.60;;;2.06;79.16;95214.69;4025050;34;20432;-83
2022/01/09 08:45:58;;;;;;;26.05;17.42;;;3.40;83.60;;;2.07;79.44;95210.09;4002036;34;20084;-82
2022/01/09 08:48:25;;;;;;;25.17;17.33;;;3.40;83.60;;;2.06;79.16;95211.97;4001780;34;20700;-83
2022/01/09 08:50:51;;;;;;;24.42;16.30;;;3.40;83.60;;;2.07;79.28;95204.69;4002927;34;20076;-82
2022/01/09 08:53:18;;;;;;;24.40;16.33;;;3.40;83.60;;;2.06;79.48;95209.28;4003380;34;20325;-82
2022/01/09 08:55:44;;;;;;;26.77;16.88;;;3.40;83.50;;;2.07;79.55;95216.31;3983712;34;20016;-82
2022/01/09 08:58:11;;;;;;;23.48;16.95;;;3.40;83.60;;;2.07;79.18;95202.81;4009113;34;20687;-83
2022/01/09 09:00:37;;;;;;;22.55;16.83;;;3.40;83.60;;;2.07;79.63;95194.72;4009330;34;20523;-82
2022/01/09 09:03:04;;;;;;;24.65;16.50;;;3.40;83.60;;;2.07;79.20;95188.50;4008811;34;20011;-83
2022/01/09 09:05:31;;;;;;;26.25;17.25;;;3.40;83.60;;;2.05;79.33;95191.44;4014793;34;20551;-83
2022/01/09 09:07:58;;;;;;;25.70;15.90;;;3.40;84.40;;;2.05;79.39;95187.94;4037119;34;19993;-83
2022/01/09 09:10:25;;;;;;;24.55;16.73;;;3.40;83.60;;;2.07;79.36;95196.59;4014819;34;20013;-84
2022/01/09 09:12:51;;;;;;;27.00;15.98;;;3.40;83.60;;;2.07;79.13;95188.50;4032708;34;20221;-84
2022/01/09 09:15:20;;;;;;;23.80;16.42;;;3.40;83.60;;;2.07;79.42;95189.31;4036467;34;20660;-84
2022/01/09 09:17:46;;;;;;;21.60;14.88;;;3.40;83.60;;;2.06;79.30;95181.47;4015801;34;20316;-84
2022/01/09 09:20:13;;;;;;;23.15;15.27;;;3.40;83.50;;;2.06;79.59;95182.28;4037310;34;20153;-84
2022/01/09 09:22:39;;;;;;;25.42;16.13;;;3.40;83.60;;;2.05;79.46;95183.34;4015161;34;20534;-84
2022/01/09 09:25:06;;;;;;;27.17;15.52;;;3.40;83.60;;;2.06;79.35;95198.47;4015095;34;20091;-84
2022/01/09 09:27:32;;;;;;;21.95;14.82;;;3.40;83.60;;;2.08;79.44;95196.38;4013454;34;20347;-84
2022/01/09 09:30:02;;;;;;;24.10;14.73;;;3.40;83.50;;;2.07;79.36;95188.50;4031495;34;20298;-84
2022/01/09 09:32:28;;;;;;;22.00;14.48;;;3.40;83.40;;;2.06;79.54;95184.97;4035422;34;19993;-84
2022/01/09 09:34:55;;;;;;;24.63;16.13;;;3.40;83.50;;;2.06;79.68;95182.28;4036610;34;20248;-84
2022/01/09 09:37:22;;;;;;;24.73;15.65;;;3.40;83.50;;;2.05;79.53;95180.66;4022596;34;20628;-84
2022/01/09 09:39:51;;;;;;;24.45;15.65;;;3.40;83.50;;;2.06;79.33;95181.47;4037411;34;20754;-84
2022/01/09 09:42:18;;;;;;;21.80;14.95;;;3.40;83.60;;;2.05;79.09;95171.75;4037363;34;20008;-82
2022/01/09 09:44:45;;;;;;;20.83;13.98;;;3.40;83.50;;;2.05;79.62;95172.53;3995448;34;20593;-83
2022/01/09 09:47:11;;;;;;;23.20;14.13;;;3.40;83.50;;;2.04;79.35;95173.59;3995947;34;20040;-83
2022/01/09 09:49:38;;;;;;;19.95;13.82;;;3.40;83.50;;;2.07;79.49;95177.69;4038904;34;20273;-83
2022/01/09 09:52:06;;;;;;;22.45;14.57;;;3.40;83.50;;;2.05;79.09;95180.66;3996298;34;20050;-83
2022/01/09 09:54:33;;;;;;;22.27;15.20;;;3.40;83.60;;;2.07;78.97;95178.53;4016464;34;20008;-83
2022/01/09 09:56:59;;;;;;;23.55;15.48;;;3.40;83.50;;;2.05;79.17;95175.25;4016967;34;20309;-83
2022/01/09 09:59:28;;;;;;;23.70;15.48;;;3.40;83.50;;;2.05;79.41;95175.25;4016201;34;20000;-83
2022/01/09 10:01:54;;;;;;;20.85;14.00;;;3.40;83.50;;;2.05;79.22;95169.84;3974895;34;20060;-83
2022/01/09 10:04:21;;;;;;;22.90;13.75;;;3.40;83.50;;;2.06;79.43;95173.38;3973913;34;20004;-83
2022/01/09 10:06:49;;;;;;;21.73;14.60;;;3.40;83.50;;;2.06;79.42;95170.69;4018178;34;20281;-83
2022/01/09 10:09:19;;;;;;;21.40;13.20;;;3.40;83.50;;;2.05;79.43;95164.44;4012600;34;20327;-83
2022/01/09 10:12:00;;;;;;;20.05;13.05;;;3.40;83.50;;;2.06;79.14;95155.28;4013743;34;20009;-83
2022/01/09 10:14:30;;;;;;;18.45;13.07;;;3.40;83.50;;;2.06;79.28;95159.88;4011774;34;20009;-83
2022/01/09 10:17:18;;;;;;;20.55;13.73;;;3.40;83.50;;;2.07;79.06;95156.94;4011173;34;20391;-84
2022/01/09 10:19:53;;;;;;;19.40;11.75;;;3.40;83.40;;;2.06;78.83;95160.69;3990443;34;20612;-83
2022/01/09 10:22:27;;;;;;;20.08;13.25;;;3.40;83.50;;;2.06;79.42;95155.28;4032141;34;20343;-83